sensor_id;sensor_type;location;lat;lon;timestamp;P1;durP1;ratioP1;P2;durP2;ratioP2
4700;SDS011;8724;51.272;6.554;2022-11-06T00:00:57;2.67;;;2.03;;
4700;SDS011;8724;51.272;6.554;2022-11-06T00:03:27;2.73;;;1.90;;
4700;SDS011;8724;51.272;6.554;2022-11-06T00:05:56;2.67;;;1.93;;
4700;SDS011;8724;51.272;6.554;2022-11-06T00:08:41;2.17;;;1.80;;
4700;SDS011;8724;51.272;6.554;2022-11-06T00:11:12;4.73;;;2.90;;
4700;SDS011;8724;51.272;6.554;2022-11-06T00:13:42;4.07;;;3.17;;
4700;SDS011;8724;51.272;6.554;2022-11-06T00:16:14;3.73;;;2.50;;
4700;SDS011;8724;51.272;6.554;2022-11-06T00:18:46;6.13;;;2.53;;
4700;SDS011;8724;51.272;6.554;2022-11-06T00:21:15;3.70;;;2.70;;
4700;SDS011;8724;51.272;6.554;2022-11-06T00:23:45;3.33;;;2.30;;
4700;SDS011;8724;51.272;6.554;2022-11-06T00:26:15;7.80;;;2.97;;
4700;SDS011;8724;51.272;6.554;2022-11-06T00:28:45;3.97;;;2.63;;
4700;SDS011;8724;51.272;6.554;2022-11-06T00:31:14;5.97;;;2.90;;
4700;SDS011;8724;51.272;6.554;2022-11-06T00:33:46;5.17;;;2.90;;
4700;SDS011;8724;51.272;6.554;2022-11-06T00:36:17;7.00;;;3.00;;
4700;SDS011;8724;51.272;6.554;2022-11-06T00:38:49;5.70;;;3.00;;
4700;SDS011;8724;51.272;6.554;2022-11-06T00:41:19;2.73;;;2.30;;
4700;SDS011;8724;51.272;6.554;2022-11-06T00:43:48;5.60;;;2.70;;
4700;SDS011;8724;51.272;6.554;2022-11-06T00:46:17;5.70;;;2.80;;
4700;SDS011;8724;51.272;6.554;2022-11-06T00:48:47;8.90;;;3.00;;
4700;SDS011;8724;51.272;6.554;2022-11-06T00:51:16;7.57;;;2.50;;
4700;SDS011;8724;51.272;6.554;2022-11-06T00:53:45;3.90;;;2.13;;
4700;SDS011;8724;51.272;6.554;2022-11-06T00:56:16;5.47;;;2.37;;
4700;SDS011;8724;51.272;6.554;2022-11-06T00:58:46;6.37;;;3.00;;
4700;SDS011;8724;51.272;6.554;2022-11-06T01:01:15;3.83;;;2.00;;
4700;SDS011;8724;51.272;6.554;2022-11-06T01:03:45;5.20;;;2.20;;
4700;SDS011;8724;51.272;6.554;2022-11-06T01:06:19;2.67;;;1.93;;
4700;SDS011;8724;51.272;6.554;2022-11-06T01:08:49;3.90;;;2.00;;
4700;SDS011;8724;51.272;6.554;2022-11-06T01:11:18;8.60;;;3.20;;
4700;SDS011;8724;51.272;6.554;2022-11-06T01:13:48;2.20;;;2.00;;
4700;SDS011;8724;51.272;6.554;2022-11-06T01:16:18;5.63;;;2.23;;
4700;SDS011;8724;51.272;6.554;2022-11-06T01:18:48;3.33;;;2.17;;
4700;SDS011;8724;51.272;6.554;2022-11-06T01:21:21;2.13;;;1.43;;
4700;SDS011;8724;51.272;6.554;2022-11-06T01:23:51;6.27;;;2.40;;
4700;SDS011;8724;51.272;6.554;2022-11-06T01:26:22;1.67;;;1.57;;
4700;SDS011;8724;51.272;6.554;2022-11-06T01:29:04;3.47;;;2.07;;
4700;SDS011;8724;51.272;6.554;2022-11-06T01:31:34;6.97;;;2.13;;
4700;SDS011;8724;51.272;6.554;2022-11-06T01:34:04;2.20;;;1.60;;
4700;SDS011;8724;51.272;6.554;2022-11-06T01:36:41;3.27;;;1.70;;
4700;SDS011;8724;51.272;6.554;2022-11-06T01:39:11;3.10;;;2.80;;
4700;SDS011;8724;51.272;6.554;2022-11-06T01:41:41;4.90;;;2.03;;
4700;SDS011;8724;51.272;6.554;2022-11-06T01:47:20;3.27;;;2.00;;
4700;SDS011;8724;51.272;6.554;2022-11-06T01:49:53;4.80;;;3.40;;
4700;SDS011;8724;51.272;6.554;2022-11-06T01:52:23;3.73;;;1.80;;
4700;SDS011;8724;51.272;6.554;2022-11-06T01:54:53;5.43;;;2.23;;
4700;SDS011;8724;51.272;6.554;2022-11-06T01:57:29;4.27;;;2.23;;
4700;SDS011;8724;51.272;6.554;2022-11-06T01:59:58;3.00;;;2.03;;
4700;SDS011;8724;51.272;6.554;2022-11-06T02:02:26;4.03;;;2.13;;
4700;SDS011;8724;51.272;6.554;2022-11-06T02:04:56;2.97;;;2.00;;
4700;SDS011;8724;51.272;6.554;2022-11-06T02:07:24;3.00;;;2.70;;
4700;SDS011;8724;51.272;6.554;2022-11-06T02:09:53;4.60;;;1.57;;
4700;SDS011;8724;51.272;6.554;2022-11-06T02:12:25;5.90;;;2.83;;
4700;SDS011;8724;51.272;6.554;2022-11-06T02:15:06;3.63;;;1.90;;
4700;SDS011;8724;51.272;6.554;2022-11-06T02:17:45;1.60;;;1.50;;
4700;SDS011;8724;51.272;6.554;2022-11-06T02:20:26;1.70;;;1.60;;
4700;SDS011;8724;51.272;6.554;2022-11-06T02:23:05;4.07;;;1.90;;
4700;SDS011;8724;51.272;6.554;2022-11-06T02:25:51;4.23;;;2.50;;
4700;SDS011;8724;51.272;6.554;2022-11-06T02:28:29;5.20;;;2.13;;
4700;SDS011;8724;51.272;6.554;2022-11-06T02:31:02;3.50;;;1.80;;
4700;SDS011;8724;51.272;6.554;2022-11-06T02:33:35;2.30;;;1.93;;
4700;SDS011;8724;51.272;6.554;2022-11-06T02:36:14;6.17;;;2.70;;
4700;SDS011;8724;51.272;6.554;2022-11-06T02:38:56;2.50;;;1.83;;
4700;SDS011;8724;51.272;6.554;2022-11-06T02:41:28;4.37;;;1.63;;
4700;SDS011;8724;51.272;6.554;2022-11-06T02:44:02;6.53;;;1.90;;
4700;SDS011;8724;51.272;6.554;2022-11-06T02:46:42;4.30;;;1.70;;
4700;SDS011;8724;51.272;6.554;2022-11-06T02:49:15;2.53;;;1.60;;
4700;SDS011;8724;51.272;6.554;2022-11-06T02:51:47;3.40;;;2.10;;
4700;SDS011;8724;51.272;6.554;2022-11-06T02:54:24;4.00;;;2.07;;
4700;SDS011;8724;51.272;6.554;2022-11-06T02:56:56;5.43;;;2.33;;
4700;SDS011;8724;51.272;6.554;2022-11-06T02:59:34;4.93;;;1.97;;
4700;SDS011;8724;51.272;6.554;2022-11-06T03:02:07;2.27;;;2.07;;
4700;SDS011;8724;51.272;6.554;2022-11-06T03:04:40;2.73;;;2.03;;
4700;SDS011;8724;51.272;6.554;2022-11-06T03:07:14;3.33;;;1.67;;
4700;SDS011;8724;51.272;6.554;2022-11-06T03:09:48;7.50;;;2.37;;
4700;SDS011;8724;51.272;6.554;2022-11-06T03:12:20;2.60;;;1.40;;
4700;SDS011;8724;51.272;6.554;2022-11-06T03:14:57;2.53;;;1.57;;
4700;SDS011;8724;51.272;6.554;2022-11-06T03:17:35;2.63;;;1.67;;
4700;SDS011;8724;51.272;6.554;2022-11-06T03:20:13;7.67;;;2.77;;
4700;SDS011;8724;51.272;6.554;2022-11-06T03:22:49;3.87;;;1.67;;
4700;SDS011;8724;51.272;6.554;2022-11-06T03:25:23;3.13;;;2.10;;
4700;SDS011;8724;51.272;6.554;2022-11-06T03:28:00;3.23;;;1.60;;
4700;SDS011;8724;51.272;6.554;2022-11-06T03:30:33;3.00;;;1.70;;
4700;SDS011;8724;51.272;6.554;2022-11-06T03:33:07;5.27;;;1.93;;
4700;SDS011;8724;51.272;6.554;2022-11-06T03:35:42;5.23;;;2.10;;
4700;SDS011;8724;51.272;6.554;2022-11-06T03:38:13;2.40;;;1.83;;
4700;SDS011;8724;51.272;6.554;2022-11-06T03:40:50;5.40;;;2.30;;
4700;SDS011;8724;51.272;6.554;2022-11-06T03:43:22;2.43;;;1.90;;
4700;SDS011;8724;51.272;6.554;2022-11-06T03:45:56;4.13;;;1.97;;
4700;SDS011;8724;51.272;6.554;2022-11-06T03:48:30;3.40;;;2.00;;
4700;SDS011;8724;51.272;6.554;2022-11-06T03:51:01;6.30;;;2.20;;
4700;SDS011;8724;51.272;6.554;2022-11-06T03:53:34;4.47;;;1.90;;
4700;SDS011;8724;51.272;6.554;2022-11-06T03:56:07;6.47;;;1.80;;
4700;SDS011;8724;51.272;6.554;2022-11-06T03:58:43;5.10;;;2.53;;
4700;SDS011;8724;51.272;6.554;2022-11-06T04:01:15;6.10;;;2.00;;
4700;SDS011;8724;51.272;6.554;2022-11-06T04:03:48;6.07;;;2.10;;
4700;SDS011;8724;51.272;6.554;2022-11-06T04:06:22;4.10;;;2.17;;
4700;SDS011;8724;51.272;6.554;2022-11-06T04:08:55;6.97;;;2.10;;
4700;SDS011;8724;51.272;6.554;2022-11-06T04:11:54;2.80;;;1.70;;
4700;SDS011;8724;51.272;6.554;2022-11-06T04:14:42;7.63;;;2.10;;
4700;SDS011;8724;51.272;6.554;2022-11-06T04:17:15;2.03;;;1.37;;
4700;SDS011;8724;51.272;6.554;2022-11-06T04:19:45;4.30;;;1.80;;
4700;SDS011;8724;51.272;6.554;2022-11-06T04:22:21;3.67;;;2.10;;
4700;SDS011;8724;51.272;6.554;2022-11-06T04:25:04;6.13;;;1.90;;
4700;SDS011;8724;51.272;6.554;2022-11-06T04:28:04;1.87;;;1.60;;
4700;SDS011;8724;51.272;6.554;2022-11-06T04:30:55;4.73;;;2.00;;
4700;SDS011;8724;51.272;6.554;2022-11-06T04:33:43;3.40;;;1.87;;
4700;SDS011;8724;51.272;6.554;2022-11-06T04:36:28;3.80;;;1.80;;
4700;SDS011;8724;51.272;6.554;2022-11-06T04:39:09;3.60;;;1.80;;
4700;SDS011;8724;51.272;6.554;2022-11-06T04:41:42;2.33;;;1.80;;
4700;SDS011;8724;51.272;6.554;2022-11-06T04:44:22;2.70;;;1.70;;
4700;SDS011;8724;51.272;6.554;2022-11-06T04:47:05;3.67;;;1.80;;
4700;SDS011;8724;51.272;6.554;2022-11-06T04:49:41;5.47;;;1.77;;
4700;SDS011;8724;51.272;6.554;2022-11-06T04:52:12;2.93;;;1.87;;
4700;SDS011;8724;51.272;6.554;2022-11-06T04:54:48;2.10;;;1.50;;
4700;SDS011;8724;51.272;6.554;2022-11-06T04:57:22;29.93;;;14.30;;
4700;SDS011;8724;51.272;6.554;2022-11-06T04:59:55;75.73;;;53.10;;
4700;SDS011;8724;51.272;6.554;2022-11-06T05:02:26;61.43;;;43.33;;
4700;SDS011;8724;51.272;6.554;2022-11-06T05:04:58;157.87;;;101.40;;
4700;SDS011;8724;51.272;6.554;2022-11-06T05:07:27;77.23;;;56.93;;
4700;SDS011;8724;51.272;6.554;2022-11-06T05:09:56;37.70;;;28.30;;
4700;SDS011;8724;51.272;6.554;2022-11-06T05:12:28;16.60;;;13.40;;
4700;SDS011;8724;51.272;6.554;2022-11-06T05:15:02;15.53;;;8.20;;
4700;SDS011;8724;51.272;6.554;2022-11-06T05:17:33;7.50;;;5.13;;
4700;SDS011;8724;51.272;6.554;2022-11-06T05:20:05;6.77;;;3.40;;
4700;SDS011;8724;51.272;6.554;2022-11-06T05:22:44;12.93;;;3.17;;
4700;SDS011;8724;51.272;6.554;2022-11-06T05:25:33;4.50;;;2.30;;
4700;SDS011;8724;51.272;6.554;2022-11-06T05:28:03;2.97;;;1.60;;
4700;SDS011;8724;51.272;6.554;2022-11-06T05:30:49;3.93;;;2.20;;
4700;SDS011;8724;51.272;6.554;2022-11-06T05:33:18;2.77;;;1.50;;
4700;SDS011;8724;51.272;6.554;2022-11-06T05:35:56;3.53;;;1.80;;
4700;SDS011;8724;51.272;6.554;2022-11-06T05:38:46;7.97;;;2.23;;
4700;SDS011;8724;51.272;6.554;2022-11-06T05:41:29;5.90;;;1.77;;
4700;SDS011;8724;51.272;6.554;2022-11-06T05:44:04;2.00;;;1.47;;
4700;SDS011;8724;51.272;6.554;2022-11-06T05:46:44;2.47;;;1.13;;
4700;SDS011;8724;51.272;6.554;2022-11-06T05:49:16;4.63;;;2.00;;
4700;SDS011;8724;51.272;6.554;2022-11-06T05:51:52;3.57;;;1.70;;
4700;SDS011;8724;51.272;6.554;2022-11-06T05:54:23;2.17;;;1.70;;
4700;SDS011;8724;51.272;6.554;2022-11-06T05:56:58;2.10;;;1.23;;
4700;SDS011;8724;51.272;6.554;2022-11-06T05:59:29;3.70;;;1.87;;
4700;SDS011;8724;51.272;6.554;2022-11-06T06:02:05;5.00;;;1.90;;
4700;SDS011;8724;51.272;6.554;2022-11-06T06:04:53;20.90;;;12.20;;
4700;SDS011;8724;51.272;6.554;2022-11-06T06:07:25;44.73;;;32.97;;
4700;SDS011;8724;51.272;6.554;2022-11-06T06:09:54;63.93;;;43.20;;
4700;SDS011;8724;51.272;6.554;2022-11-06T06:12:29;26.87;;;18.83;;
4700;SDS011;8724;51.272;6.554;2022-11-06T06:14:59;12.93;;;8.70;;
4700;SDS011;8724;51.272;6.554;2022-11-06T06:17:30;8.77;;;5.37;;
4700;SDS011;8724;51.272;6.554;2022-11-06T06:20:03;6.70;;;3.47;;
4700;SDS011;8724;51.272;6.554;2022-11-06T06:22:52;5.23;;;2.47;;
4700;SDS011;8724;51.272;6.554;2022-11-06T06:25:22;4.27;;;1.93;;
4700;SDS011;8724;51.272;6.554;2022-11-06T06:27:52;2.20;;;1.60;;
4700;SDS011;8724;51.272;6.554;2022-11-06T06:30:26;2.80;;;1.90;;
4700;SDS011;8724;51.272;6.554;2022-11-06T06:33:02;3.33;;;1.90;;
4700;SDS011;8724;51.272;6.554;2022-11-06T06:35:36;3.37;;;1.37;;
4700;SDS011;8724;51.272;6.554;2022-11-06T06:38:07;5.70;;;1.60;;
4700;SDS011;8724;51.272;6.554;2022-11-06T06:40:43;1.90;;;1.10;;
4700;SDS011;8724;51.272;6.554;2022-11-06T06:43:30;2.20;;;1.47;;
4700;SDS011;8724;51.272;6.554;2022-11-06T06:46:05;16.43;;;10.50;;
4700;SDS011;8724;51.272;6.554;2022-11-06T06:48:37;84.20;;;54.93;;
4700;SDS011;8724;51.272;6.554;2022-11-06T06:51:08;120.83;;;82.80;;
4700;SDS011;8724;51.272;6.554;2022-11-06T06:53:40;54.93;;;39.03;;
4700;SDS011;8724;51.272;6.554;2022-11-06T06:56:15;30.87;;;20.00;;
4700;SDS011;8724;51.272;6.554;2022-11-06T06:58:43;19.07;;;12.40;;
4700;SDS011;8724;51.272;6.554;2022-11-06T07:01:12;8.43;;;6.93;;
4700;SDS011;8724;51.272;6.554;2022-11-06T07:03:40;8.97;;;5.00;;
4700;SDS011;8724;51.272;6.554;2022-11-06T07:06:13;5.30;;;3.00;;
4700;SDS011;8724;51.272;6.554;2022-11-06T07:08:46;4.20;;;2.87;;
4700;SDS011;8724;51.272;6.554;2022-11-06T07:11:14;4.13;;;2.00;;
4700;SDS011;8724;51.272;6.554;2022-11-06T07:13:43;3.90;;;1.97;;
4700;SDS011;8724;51.272;6.554;2022-11-06T07:16:16;2.13;;;1.30;;
4700;SDS011;8724;51.272;6.554;2022-11-06T07:18:46;3.63;;;1.50;;
4700;SDS011;8724;51.272;6.554;2022-11-06T07:21:14;2.70;;;1.57;;
4700;SDS011;8724;51.272;6.554;2022-11-06T07:23:43;4.67;;;1.93;;
4700;SDS011;8724;51.272;6.554;2022-11-06T07:26:15;6.03;;;1.90;;
4700;SDS011;8724;51.272;6.554;2022-11-06T07:28:43;4.37;;;1.53;;
4700;SDS011;8724;51.272;6.554;2022-11-06T07:31:11;4.10;;;1.80;;
4700;SDS011;8724;51.272;6.554;2022-11-06T07:33:40;3.47;;;1.40;;
4700;SDS011;8724;51.272;6.554;2022-11-06T07:36:12;3.03;;;1.70;;
4700;SDS011;8724;51.272;6.554;2022-11-06T07:38:45;7.10;;;2.00;;
4700;SDS011;8724;51.272;6.554;2022-11-06T07:41:15;5.67;;;1.80;;
4700;SDS011;8724;51.272;6.554;2022-11-06T07:43:43;34.97;;;25.57;;
4700;SDS011;8724;51.272;6.554;2022-11-06T07:46:18;50.37;;;36.97;;
4700;SDS011;8724;51.272;6.554;2022-11-06T07:48:48;28.90;;;21.33;;
4700;SDS011;8724;51.272;6.554;2022-11-06T07:51:18;20.33;;;14.13;;
4700;SDS011;8724;51.272;6.554;2022-11-06T07:53:46;9.87;;;7.60;;
4700;SDS011;8724;51.272;6.554;2022-11-06T07:56:20;8.37;;;5.50;;
4700;SDS011;8724;51.272;6.554;2022-11-06T07:58:49;8.53;;;3.10;;
4700;SDS011;8724;51.272;6.554;2022-11-06T08:01:17;7.10;;;2.73;;
4700;SDS011;8724;51.272;6.554;2022-11-06T08:03:46;3.77;;;2.20;;
4700;SDS011;8724;51.272;6.554;2022-11-06T08:06:15;4.90;;;1.90;;
4700;SDS011;8724;51.272;6.554;2022-11-06T08:08:49;3.47;;;1.73;;
4700;SDS011;8724;51.272;6.554;2022-11-06T08:11:25;3.13;;;1.70;;
4700;SDS011;8724;51.272;6.554;2022-11-06T08:13:54;3.77;;;1.83;;
4700;SDS011;8724;51.272;6.554;2022-11-06T08:16:26;3.10;;;1.77;;
4700;SDS011;8724;51.272;6.554;2022-11-06T08:18:54;3.27;;;1.50;;
4700;SDS011;8724;51.272;6.554;2022-11-06T08:21:22;2.83;;;1.43;;
4700;SDS011;8724;51.272;6.554;2022-11-06T08:23:51;4.00;;;1.77;;
4700;SDS011;8724;51.272;6.554;2022-11-06T08:26:22;5.37;;;2.67;;
4700;SDS011;8724;51.272;6.554;2022-11-06T08:28:52;2.50;;;1.87;;
4700;SDS011;8724;51.272;6.554;2022-11-06T08:31:20;4.20;;;1.50;;
4700;SDS011;8724;51.272;6.554;2022-11-06T08:33:49;4.40;;;1.63;;
4700;SDS011;8724;51.272;6.554;2022-11-06T08:36:18;2.90;;;1.70;;
4700;SDS011;8724;51.272;6.554;2022-11-06T08:38:46;5.13;;;1.73;;
4700;SDS011;8724;51.272;6.554;2022-11-06T08:41:15;8.97;;;2.30;;
4700;SDS011;8724;51.272;6.554;2022-11-06T08:43:43;2.73;;;1.70;;
4700;SDS011;8724;51.272;6.554;2022-11-06T08:46:13;4.43;;;1.70;;
4700;SDS011;8724;51.272;6.554;2022-11-06T08:48:42;2.10;;;1.60;;
4700;SDS011;8724;51.272;6.554;2022-11-06T08:51:11;3.47;;;1.67;;
4700;SDS011;8724;51.272;6.554;2022-11-06T08:53:39;8.47;;;2.00;;
4700;SDS011;8724;51.272;6.554;2022-11-06T08:56:08;4.93;;;2.23;;
4700;SDS011;8724;51.272;6.554;2022-11-06T08:58:44;1.87;;;1.77;;
4700;SDS011;8724;51.272;6.554;2022-11-06T09:01:21;4.30;;;1.87;;
4700;SDS011;8724;51.272;6.554;2022-11-06T09:03:52;7.13;;;2.60;;
4700;SDS011;8724;51.272;6.554;2022-11-06T09:06:21;3.23;;;1.67;;
4700;SDS011;8724;51.272;6.554;2022-11-06T09:08:50;4.03;;;2.30;;
4700;SDS011;8724;51.272;6.554;2022-11-06T09:11:18;4.30;;;2.10;;
4700;SDS011;8724;51.272;6.554;2022-11-06T09:13:47;4.23;;;1.90;;
4700;SDS011;8724;51.272;6.554;2022-11-06T09:16:15;5.63;;;2.00;;
4700;SDS011;8724;51.272;6.554;2022-11-06T09:18:46;6.07;;;1.60;;
4700;SDS011;8724;51.272;6.554;2022-11-06T09:21:14;2.87;;;1.70;;
4700;SDS011;8724;51.272;6.554;2022-11-06T09:23:43;4.17;;;2.03;;
4700;SDS011;8724;51.272;6.554;2022-11-06T09:26:17;5.13;;;2.57;;
4700;SDS011;8724;51.272;6.554;2022-11-06T09:28:48;3.60;;;2.27;;
4700;SDS011;8724;51.272;6.554;2022-11-06T09:31:17;39.60;;;23.47;;
4700;SDS011;8724;51.272;6.554;2022-11-06T09:33:46;46.43;;;32.07;;
4700;SDS011;8724;51.272;6.554;2022-11-06T09:36:15;56.77;;;41.07;;
4700;SDS011;8724;51.272;6.554;2022-11-06T09:38:44;38.93;;;25.93;;
4700;SDS011;8724;51.272;6.554;2022-11-06T09:41:15;28.97;;;18.70;;
4700;SDS011;8724;51.272;6.554;2022-11-06T09:43:54;14.20;;;12.70;;
4700;SDS011;8724;51.272;6.554;2022-11-06T09:46:38;12.13;;;7.60;;
4700;SDS011;8724;51.272;6.554;2022-11-06T09:49:14;8.27;;;5.50;;
4700;SDS011;8724;51.272;6.554;2022-11-06T09:51:47;5.90;;;3.87;;
4700;SDS011;8724;51.272;6.554;2022-11-06T09:54:22;4.80;;;2.83;;
4700;SDS011;8724;51.272;6.554;2022-11-06T09:56:58;7.60;;;2.57;;
4700;SDS011;8724;51.272;6.554;2022-11-06T09:59:33;8.00;;;3.00;;
4700;SDS011;8724;51.272;6.554;2022-11-06T10:02:13;2.10;;;1.70;;
4700;SDS011;8724;51.272;6.554;2022-11-06T10:04:54;5.90;;;2.20;;
4700;SDS011;8724;51.272;6.554;2022-11-06T10:07:30;5.60;;;2.00;;
4700;SDS011;8724;51.272;6.554;2022-11-06T10:10:02;7.17;;;2.10;;
4700;SDS011;8724;51.272;6.554;2022-11-06T10:12:41;3.30;;;1.70;;
4700;SDS011;8724;51.272;6.554;2022-11-06T10:15:21;2.80;;;1.80;;
4700;SDS011;8724;51.272;6.554;2022-11-06T10:17:57;4.00;;;1.77;;
4700;SDS011;8724;51.272;6.554;2022-11-06T10:20:40;6.00;;;2.50;;
4700;SDS011;8724;51.272;6.554;2022-11-06T10:23:17;7.10;;;4.50;;
4700;SDS011;8724;51.272;6.554;2022-11-06T10:25:53;34.07;;;22.47;;
4700;SDS011;8724;51.272;6.554;2022-11-06T10:28:46;30.47;;;20.97;;
4700;SDS011;8724;51.272;6.554;2022-11-06T10:31:41;19.30;;;10.10;;
4700;SDS011;8724;51.272;6.554;2022-11-06T10:34:18;7.97;;;5.23;;
4700;SDS011;8724;51.272;6.554;2022-11-06T10:36:54;5.00;;;4.37;;
4700;SDS011;8724;51.272;6.554;2022-11-06T10:39:28;4.67;;;2.90;;
4700;SDS011;8724;51.272;6.554;2022-11-06T10:41:59;3.10;;;2.47;;
4700;SDS011;8724;51.272;6.554;2022-11-06T10:44:43;5.47;;;1.70;;
4700;SDS011;8724;51.272;6.554;2022-11-06T10:47:17;4.37;;;2.13;;
4700;SDS011;8724;51.272;6.554;2022-11-06T10:49:47;2.57;;;1.60;;
4700;SDS011;8724;51.272;6.554;2022-11-06T10:52:26;4.40;;;2.10;;
4700;SDS011;8724;51.272;6.554;2022-11-06T10:55:27;6.30;;;2.00;;
4700;SDS011;8724;51.272;6.554;2022-11-06T10:58:17;4.63;;;1.70;;
4700;SDS011;8724;51.272;6.554;2022-11-06T11:00:57;3.30;;;1.40;;
4700;SDS011;8724;51.272;6.554;2022-11-06T11:03:28;3.10;;;1.77;;
4700;SDS011;8724;51.272;6.554;2022-11-06T11:05:59;2.10;;;2.00;;
4700;SDS011;8724;51.272;6.554;2022-11-06T11:08:37;5.10;;;2.23;;
4700;SDS011;8724;51.272;6.554;2022-11-06T11:11:15;4.53;;;1.60;;
4700;SDS011;8724;51.272;6.554;2022-11-06T11:13:49;32.03;;;23.70;;
4700;SDS011;8724;51.272;6.554;2022-11-06T11:16:44;40.83;;;29.40;;
4700;SDS011;8724;51.272;6.554;2022-11-06T11:19:14;25.03;;;18.00;;
4700;SDS011;8724;51.272;6.554;2022-11-06T11:21:54;14.43;;;10.37;;
4700;SDS011;8724;51.272;6.554;2022-11-06T11:24:26;11.13;;;7.67;;
4700;SDS011;8724;51.272;6.554;2022-11-06T11:26:55;6.57;;;4.83;;
4700;SDS011;8724;51.272;6.554;2022-11-06T11:29:30;4.60;;;3.30;;
4700;SDS011;8724;51.272;6.554;2022-11-06T11:32:01;4.50;;;3.70;;
4700;SDS011;8724;51.272;6.554;2022-11-06T11:34:43;4.10;;;2.90;;
4700;SDS011;8724;51.272;6.554;2022-11-06T11:37:22;3.60;;;2.87;;
4700;SDS011;8724;51.272;6.554;2022-11-06T11:39:55;3.83;;;2.10;;
4700;SDS011;8724;51.272;6.554;2022-11-06T11:42:50;2.93;;;1.50;;
4700;SDS011;8724;51.272;6.554;2022-11-06T11:45:18;3.40;;;2.33;;
4700;SDS011;8724;51.272;6.554;2022-11-06T11:47:49;1.67;;;1.53;;
4700;SDS011;8724;51.272;6.554;2022-11-06T11:50:26;5.90;;;1.73;;
4700;SDS011;8724;51.272;6.554;2022-11-06T11:52:58;4.50;;;1.80;;
4700;SDS011;8724;51.272;6.554;2022-11-06T11:55:38;3.20;;;2.50;;
4700;SDS011;8724;51.272;6.554;2022-11-06T11:58:17;4.70;;;1.80;;
4700;SDS011;8724;51.272;6.554;2022-11-06T12:00:49;3.50;;;1.80;;
4700;SDS011;8724;51.272;6.554;2022-11-06T12:03:22;3.30;;;2.10;;
4700;SDS011;8724;51.272;6.554;2022-11-06T12:05:53;6.00;;;1.63;;
4700;SDS011;8724;51.272;6.554;2022-11-06T12:08:52;4.97;;;1.60;;
4700;SDS011;8724;51.272;6.554;2022-11-06T12:11:24;3.07;;;1.80;;
4700;SDS011;8724;51.272;6.554;2022-11-06T12:16:57;5.57;;;3.10;;
4700;SDS011;8724;51.272;6.554;2022-11-06T12:19:30;7.30;;;3.00;;
4700;SDS011;8724;51.272;6.554;2022-11-06T12:22:05;4.77;;;2.80;;
4700;SDS011;8724;51.272;6.554;2022-11-06T12:24:47;4.47;;;2.60;;
4700;SDS011;8724;51.272;6.554;2022-11-06T12:27:21;3.03;;;2.50;;
4700;SDS011;8724;51.272;6.554;2022-11-06T12:29:55;2.47;;;2.27;;
4700;SDS011;8724;51.272;6.554;2022-11-06T12:35:27;64.30;;;44.50;;
4700;SDS011;8724;51.272;6.554;2022-11-06T12:38:01;49.43;;;35.90;;
4700;SDS011;8724;51.272;6.554;2022-11-06T12:40:48;25.00;;;19.33;;
4700;SDS011;8724;51.272;6.554;2022-11-06T12:43:24;16.30;;;12.30;;
4700;SDS011;8724;51.272;6.554;2022-11-06T12:46:15;10.20;;;7.63;;
4700;SDS011;8724;51.272;6.554;2022-11-06T12:48:59;8.40;;;4.17;;
4700;SDS011;8724;51.272;6.554;2022-11-06T12:51:52;3.90;;;3.27;;
4700;SDS011;8724;51.272;6.554;2022-11-06T12:54:49;5.97;;;2.83;;
4700;SDS011;8724;51.272;6.554;2022-11-06T12:57:32;6.00;;;2.70;;
4700;SDS011;8724;51.272;6.554;2022-11-06T13:00:13;2.63;;;1.90;;
4700;SDS011;8724;51.272;6.554;2022-11-06T13:02:55;2.53;;;2.33;;
4700;SDS011;8724;51.272;6.554;2022-11-06T13:05:37;2.23;;;1.87;;
4700;SDS011;8724;51.272;6.554;2022-11-06T13:08:15;3.70;;;2.57;;
4700;SDS011;8724;51.272;6.554;2022-11-06T13:10:59;6.13;;;2.53;;
4700;SDS011;8724;51.272;6.554;2022-11-06T13:13:39;3.83;;;1.97;;
4700;SDS011;8724;51.272;6.554;2022-11-06T13:16:18;2.50;;;1.83;;
4700;SDS011;8724;51.272;6.554;2022-11-06T13:18:55;2.90;;;2.33;;
4700;SDS011;8724;51.272;6.554;2022-11-06T13:21:30;2.53;;;1.80;;
4700;SDS011;8724;51.272;6.554;2022-11-06T13:24:08;1.90;;;1.80;;
4700;SDS011;8724;51.272;6.554;2022-11-06T13:26:43;2.93;;;2.47;;
4700;SDS011;8724;51.272;6.554;2022-11-06T13:29:16;6.17;;;2.40;;
4700;SDS011;8724;51.272;6.554;2022-11-06T13:31:47;3.30;;;2.63;;
4700;SDS011;8724;51.272;6.554;2022-11-06T13:34:21;7.03;;;3.03;;
4700;SDS011;8724;51.272;6.554;2022-11-06T13:36:53;5.00;;;2.57;;
4700;SDS011;8724;51.272;6.554;2022-11-06T13:39:23;2.40;;;2.17;;
4700;SDS011;8724;51.272;6.554;2022-11-06T13:41:58;3.93;;;2.57;;
4700;SDS011;8724;51.272;6.554;2022-11-06T13:44:28;3.70;;;2.20;;
4700;SDS011;8724;51.272;6.554;2022-11-06T13:47:01;6.63;;;2.40;;
4700;SDS011;8724;51.272;6.554;2022-11-06T13:49:37;4.00;;;2.90;;
4700;SDS011;8724;51.272;6.554;2022-11-06T13:52:12;4.03;;;2.57;;
4700;SDS011;8724;51.272;6.554;2022-11-06T13:54:55;3.13;;;2.20;;
4700;SDS011;8724;51.272;6.554;2022-11-06T13:57:52;2.80;;;2.40;;
4700;SDS011;8724;51.272;6.554;2022-11-06T14:00:45;4.07;;;2.20;;
4700;SDS011;8724;51.272;6.554;2022-11-06T14:03:42;2.40;;;2.10;;
4700;SDS011;8724;51.272;6.554;2022-11-06T14:06:27;2.20;;;1.93;;
4700;SDS011;8724;51.272;6.554;2022-11-06T14:08:58;3.00;;;1.90;;
4700;SDS011;8724;51.272;6.554;2022-11-06T14:11:29;2.10;;;1.90;;
4700;SDS011;8724;51.272;6.554;2022-11-06T14:14:02;2.40;;;2.00;;
4700;SDS011;8724;51.272;6.554;2022-11-06T14:16:39;2.70;;;2.37;;
4700;SDS011;8724;51.272;6.554;2022-11-06T14:19:12;6.33;;;2.60;;
4700;SDS011;8724;51.272;6.554;2022-11-06T14:21:49;4.60;;;3.10;;
4700;SDS011;8724;51.272;6.554;2022-11-06T14:27:08;6.80;;;3.50;;
4700;SDS011;8724;51.272;6.554;2022-11-06T14:29:59;4.07;;;3.23;;
4700;SDS011;8724;51.272;6.554;2022-11-06T14:32:36;6.13;;;3.83;;
4700;SDS011;8724;51.272;6.554;2022-11-06T14:44:20;5.23;;;3.10;;
4700;SDS011;8724;51.272;6.554;2022-11-06T14:46:58;4.10;;;3.03;;
4700;SDS011;8724;51.272;6.554;2022-11-06T14:49:41;50.87;;;34.67;;
4700;SDS011;8724;51.272;6.554;2022-11-06T14:52:16;57.57;;;41.30;;
4700;SDS011;8724;51.272;6.554;2022-11-06T14:54:50;41.30;;;28.70;;
4700;SDS011;8724;51.272;6.554;2022-11-06T14:57:34;21.10;;;16.40;;
4700;SDS011;8724;51.272;6.554;2022-11-06T15:00:07;13.40;;;10.20;;
4700;SDS011;8724;51.272;6.554;2022-11-06T15:02:39;13.93;;;7.97;;
4700;SDS011;8724;51.272;6.554;2022-11-06T15:05:12;6.17;;;5.43;;
4700;SDS011;8724;51.272;6.554;2022-11-06T15:07:51;5.07;;;4.23;;
4700;SDS011;8724;51.272;6.554;2022-11-06T15:13:25;3.63;;;2.77;;
4700;SDS011;8724;51.272;6.554;2022-11-06T15:15:59;5.30;;;3.10;;
4700;SDS011;8724;51.272;6.554;2022-11-06T15:18:33;4.57;;;3.23;;
4700;SDS011;8724;51.272;6.554;2022-11-06T15:21:07;3.97;;;2.60;;
4700;SDS011;8724;51.272;6.554;2022-11-06T15:23:39;3.30;;;2.90;;
4700;SDS011;8724;51.272;6.554;2022-11-06T15:26:17;4.70;;;4.20;;
4700;SDS011;8724;51.272;6.554;2022-11-06T15:29:05;4.80;;;4.30;;
4700;SDS011;8724;51.272;6.554;2022-11-06T15:31:44;3.70;;;3.33;;
4700;SDS011;8724;51.272;6.554;2022-11-06T15:34:15;4.70;;;3.70;;
4700;SDS011;8724;51.272;6.554;2022-11-06T15:36:49;5.97;;;3.70;;
4700;SDS011;8724;51.272;6.554;2022-11-06T15:39:28;5.07;;;4.10;;
4700;SDS011;8724;51.272;6.554;2022-11-06T15:42:07;5.83;;;4.10;;
4700;SDS011;8724;51.272;6.554;2022-11-06T15:44:42;7.30;;;3.80;;
4700;SDS011;8724;51.272;6.554;2022-11-06T15:47:18;4.70;;;3.33;;
4700;SDS011;8724;51.272;6.554;2022-11-06T15:52:34;3.50;;;3.20;;
4700;SDS011;8724;51.272;6.554;2022-11-06T15:55:02;4.63;;;2.33;;
4700;SDS011;8724;51.272;6.554;2022-11-06T15:57:33;5.27;;;3.20;;
4700;SDS011;8724;51.272;6.554;2022-11-06T16:00:08;4.80;;;3.00;;
4700;SDS011;8724;51.272;6.554;2022-11-06T16:02:47;2.97;;;2.60;;
4700;SDS011;8724;51.272;6.554;2022-11-06T16:05:17;2.20;;;1.90;;
4700;SDS011;8724;51.272;6.554;2022-11-06T16:07:46;3.57;;;2.23;;
4700;SDS011;8724;51.272;6.554;2022-11-06T16:10:16;3.00;;;2.27;;
4700;SDS011;8724;51.272;6.554;2022-11-06T16:12:48;3.50;;;2.53;;
4700;SDS011;8724;51.272;6.554;2022-11-06T16:18:18;2.70;;;2.40;;
4700;SDS011;8724;51.272;6.554;2022-11-06T16:20:51;2.13;;;1.90;;
4700;SDS011;8724;51.272;6.554;2022-11-06T16:23:22;4.33;;;1.80;;
4700;SDS011;8724;51.272;6.554;2022-11-06T16:26:04;1.97;;;1.60;;
4700;SDS011;8724;51.272;6.554;2022-11-06T16:28:42;3.07;;;2.00;;